Time;durP1;ratioP1;P1;durP2;ratioP2;P2;SDS_P1;SDS_P2;PMS_P1;PMS_P2;Temp;Humidity;BMP_temperature;BMP_pressure;BME280_temperature;BME280_humidity;BME280_pressure;Samples;Min_cycle;Max_cycle;Signal;HPM_P1;HPM_P2
2024/01/11 00:00:04;;;;;;;32.20;19.93;;;-2.40;75.60;;;;;;961897;148;27368;-86
2024/01/11 00:02:30;;;;;;;34.67;21.57;;;-2.40;74.90;;;;;;959107;147;27322;-85
2024/01/11 00:04:57;;;;;;;30.00;18.27;;;-2.40;74.90;;;;;;959111;147;27328;-86
2024/01/11 00:07:23;;;;;;;32.57;19.43;;;-2.40;74.90;;;;;;959129;146;27389;-87
2024/01/11 00:09:50;;;;;;;30.53;19.17;;;-2.50;74.70;;;;;;960791;147;27279;-86
2024/01/11 00:12:17;;;;;;;33.10;19.90;;;-2.50;74.70;;;;;;963946;148;27367;-84
2024/01/11 00:14:43;;;;;;;32.63;18.73;;;-2.50;74.70;;;;;;963107;147;27462;-87
2024/01/11 00:17:10;;;;;;;28.40;17.10;;;-2.50;74.70;;;;;;961955;147;27386;-87
2024/01/11 00:19:36;;;;;;;30.93;19.67;;;-2.50;74.70;;;;;;960294;147;27259;-86
2024/01/11 00:22:03;;;;;;;27.33;17.37;;;-2.50;74.80;;;;;;960878;147;27380;-86
2024/01/11 00:24:30;;;;;;;31.07;19.00;;;-2.50;74.70;;;;;;959562;147;27419;-84
2024/01/11 00:26:56;;;;;;;32.83;18.10;;;-2.50;74.80;;;;;;960230;147;27362;-86
2024/01/11 00:29:23;;;;;;;30.77;18.60;;;-2.50;74.90;;;;;;960213;148;27373;-86
2024/01/11 00:31:49;;;;;;;27.77;17.27;;;-2.50;74.90;;;;;;959973;146;27841;-85
2024/01/11 00:34:16;;;;;;;26.17;18.57;;;-2.50;74.90;;;;;;960616;147;27312;-85
2024/01/11 00:36:43;;;;;;;31.90;18.87;;;-2.50;75.00;;;;;;959325;147;27443;-87
2024/01/11 00:39:10;;;;;;;33.50;19.77;;;-2.50;75.20;;;;;;960753;147;27263;-86
2024/01/11 00:41:36;;;;;;;32.77;17.67;;;-2.50;75.00;;;;;;960146;148;27766;-87
2024/01/11 00:44:02;;;;;;;28.63;19.07;;;-2.50;75.10;;;;;;962001;148;27367;-85
2024/01/11 00:46:29;;;;;;;29.67;19.17;;;-2.50;75.00;;;;;;960084;147;27466;-88
2024/01/11 00:48:56;;;;;;;32.37;19.00;;;-2.50;75.00;;;;;;957677;148;27432;-86
2024/01/11 00:51:22;;;;;;;30.83;19.77;;;-2.60;75.00;;;;;;957485;146;27315;-86
2024/01/11 00:53:49;;;;;;;32.70;19.37;;;-2.60;75.10;;;;;;958004;147;27271;-83
2024/01/11 00:56:18;;;;;;;31.30;19.47;;;-2.60;75.10;;;;;;955088;146;27317;-86
2024/01/11 00:58:44;;;;;;;27.70;17.70;;;-2.60;75.20;;;;;;956501;146;27298;-86
2024/01/11 01:01:11;;;;;;;32.10;18.10;;;-2.60;75.20;;;;;;957327;148;27276;-86
2024/01/11 01:03:37;;;;;;;29.00;17.97;;;-2.60;75.20;;;;;;960274;148;27320;-83
2024/01/11 01:06:04;;;;;;;30.83;18.87;;;-2.60;75.20;;;;;;958729;147;27447;-85
2024/01/11 01:08:31;;;;;;;29.40;17.67;;;-2.60;75.30;;;;;;958995;146;27392;-85
2024/01/11 01:10:57;;;;;;;27.87;17.00;;;-2.60;75.30;;;;;;957206;147;27393;-85
2024/01/11 01:13:24;;;;;;;30.70;20.03;;;-2.70;75.30;;;;;;958212;146;27445;-85
2024/01/11 01:15:50;;;;;;;31.33;18.23;;;-2.70;75.30;;;;;;957247;148;27326;-86
2024/01/11 01:18:17;;;;;;;29.77;18.10;;;-2.70;75.30;;;;;;957057;146;27282;-85
2024/01/11 01:20:44;;;;;;;28.93;18.50;;;-2.70;75.40;;;;;;958503;147;27412;-85
2024/01/11 01:23:10;;;;;;;27.33;18.10;;;-2.70;75.40;;;;;;959743;148;27279;-85
2024/01/11 01:25:37;;;;;;;31.40;18.67;;;-2.70;75.50;;;;;;958824;148;27343;-83
2024/01/11 01:28:03;;;;;;;34.73;19.20;;;-2.70;75.70;;;;;;958169;146;27284;-86
2024/01/11 01:30:30;;;;;;;33.53;18.57;;;-2.70;75.60;;;;;;959172;148;27291;-84
2024/01/11 01:32:57;;;;;;;26.37;18.13;;;-2.80;75.50;;;;;;959857;148;27278;-85
2024/01/11 01:35:24;;;;;;;29.50;18.23;;;-2.80;75.60;;;;;;958932;146;27301;-84
2024/01/11 01:37:50;;;;;;;31.23;19.20;;;-2.80;75.70;;;;;;958791;148;27310;-86
2024/01/11 01:40:16;;;;;;;28.50;17.77;;;-2.80;75.60;;;;;;957857;148;27400;-85
2024/01/11 01:42:44;;;;;;;29.57;19.07;;;-2.80;75.70;;;;;;958357;148;27364;-83
2024/01/11 01:45:10;;;;;;;31.90;18.20;;;-2.80;75.60;;;;;;959942;148;27296;-83
2024/01/11 01:47:36;;;;;;;29.47;18.97;;;-2.80;75.70;;;;;;960009;147;27373;-83
2024/01/11 01:50:03;;;;;;;32.13;19.13;;;-2.80;75.70;;;;;;961790;148;27295;-83
2024/01/11 01:52:29;;;;;;;28.97;18.73;;;-2.90;75.70;;;;;;961320;146;27305;-83
2024/01/11 01:54:56;;;;;;;31.17;19.57;;;-2.90;75.70;;;;;;960718;146;27257;-83
2024/01/11 01:57:23;;;;;;;30.27;19.17;;;-2.90;75.70;;;;;;961864;148;27411;-83
2024/01/11 01:59:52;;;;;;;30.63;19.93;;;-2.90;75.70;;;;;;960350;146;27280;-83
2024/01/11 02:02:18;;;;;;;30.13;18.77;;;-2.90;75.70;;;;;;960266;147;27298;-83
2024/01/11 02:04:45;;;;;;;31.50;18.73;;;-3.00;75.50;;;;;;961170;148;27374;-84
2024/01/11 02:07:11;;;;;;;32.73;20.07;;;-3.00;75.50;;;;;;961012;146;27343;-83
2024/01/11 02:09:38;;;;;;;36.53;19.40;;;-3.00;75.50;;;;;;961468;146;27315;-83
2024/01/11 02:12:05;;;;;;;32.00;19.37;;;-3.10;75.50;;;;;;959901;146;27276;-82
2024/01/11 02:14:31;;;;;;;32.33;18.87;;;-3.10;75.50;;;;;;961923;146;27359;-82
2024/01/11 02:16:58;;;;;;;31.23;18.87;;;-3.10;75.60;;;;;;961658;148;27333;-82
2024/01/11 02:19:24;;;;;;;31.30;19.47;;;-3.10;75.70;;;;;;962287;147;27409;-82
2024/01/11 02:21:51;;;;;;;34.97;20.63;;;-3.20;75.70;;;;;;958611;146;27366;-83
2024/01/11 02:24:17;;;;;;;31.50;18.37;;;-3.20;75.70;;;;;;960999;147;27274;-83
2024/01/11 02:26:59;;;;;;;39.13;19.67;;;-3.20;75.80;;;;;;960932;147;27319;-82
2024/01/11 02:29:26;;;;;;;34.37;19.83;;;-3.20;75.80;;;;;;961159;146;27362;-83
2024/01/11 02:31:52;;;;;;;31.07;19.03;;;-3.20;75.80;;;;;;962282;147;27278;-83
2024/01/11 02:34:19;;;;;;;28.00;17.73;;;-3.30;75.90;;;;;;961836;148;27377;-83
2024/01/11 02:36:46;;;;;;;32.07;19.87;;;-3.30;75.80;;;;;;960458;146;27251;-84
2024/01/11 02:39:12;;;;;;;33.23;18.53;;;-3.30;76.00;;;;;;961073;146;27339;-83
2024/01/11 02:41:39;;;;;;;33.40;19.50;;;-3.30;76.00;;;;;;958822;146;27292;-82
2024/01/11 02:44:05;;;;;;;30.13;17.57;;;-3.30;76.10;;;;;;963047;146;27275;-82
2024/01/11 02:46:32;;;;;;;30.27;18.40;;;-3.40;76.10;;;;;;962558;146;27267;-83
2024/01/11 02:48:59;;;;;;;34.10;18.43;;;-3.30;76.30;;;;;;961967;147;27306;-83
2024/01/11 02:51:25;;;;;;;29.43;18.90;;;-3.30;76.40;;;;;;961587;147;27320;-86
2024/01/11 02:53:52;;;;;;;32.53;19.10;;;-3.40;76.40;;;;;;961920;147;27279;-87
2024/01/11 02:56:18;;;;;;;32.97;19.77;;;-3.40;76.40;;;;;;962043;147;27255;-85
2024/01/11 02:58:45;;;;;;;32.67;19.30;;;-3.30;77.20;;;;;;960011;148;27429;-85
2024/01/11 03:01:12;;;;;;;34.73;18.63;;;-3.40;76.40;;;;;;959325;147;27988;-87
2024/01/11 03:03:38;;;;;;;31.33;18.60;;;-3.30;76.50;;;;;;960885;146;27307;-87
2024/01/11 03:06:05;;;;;;;34.60;19.60;;;-3.40;76.40;;;;;;961802;148;27292;-85
2024/01/11 03:08:31;;;;;;;33.17;20.13;;;-3.40;76.40;;;;;;962822;147;27317;-85
2024/01/11 03:10:58;;;;;;;36.80;20.37;;;-3.40;76.40;;;;;;961747;147;27409;-86
2024/01/11 03:13:25;;;;;;;34.03;19.03;;;-3.40;76.50;;;;;;961832;147;27439;-83
2024/01/11 03:15:51;;;;;;;34.80;18.53;;;-3.40;76.60;;;;;;961997;147;27271;-83
2024/01/11 03:18:18;;;;;;;35.57;20.00;;;-3.40;76.60;;;;;;959871;148;27372;-83
2024/01/11 03:20:44;;;;;;;31.10;17.73;;;-3.40;76.60;;;;;;960729;148;27300;-83
2024/01/11 03:23:11;;;;;;;32.47;18.90;;;-3.40;76.70;;;;;;961646;147;27417;-83
2024/01/11 03:25:37;;;;;;;35.03;20.17;;;-3.40;76.90;;;;;;961782;147;27259;-83
2024/01/11 03:28:04;;;;;;;34.13;19.30;;;-3.40;76.70;;;;;;960563;148;27259;-83
2024/01/11 03:30:31;;;;;;;33.10;19.93;;;-3.40;76.70;;;;;;961079;147;27255;-83
2024/01/11 03:32:57;;;;;;;35.93;19.27;;;-3.40;76.70;;;;;;960956;147;27371;-83
2024/01/11 03:35:24;;;;;;;33.83;20.13;;;-3.50;76.60;;;;;;959693;147;27269;-83
2024/01/11 03:37:51;;;;;;;33.17;18.33;;;-3.50;76.60;;;;;;963354;147;27311;-83
2024/01/11 03:40:17;;;;;;;33.60;20.00;;;-3.50;76.60;;;;;;960572;147;27255;-83
2024/01/11 03:42:44;;;;;;;30.23;18.53;;;-3.50;76.60;;;;;;962221;147;27355;-83
2024/01/11 03:45:10;;;;;;;31.40;18.33;;;-3.50;76.70;;;;;;960116;147;27359;-83
2024/01/11 03:47:37;;;;;;;36.97;19.93;;;-3.50;76.70;;;;;;962129;147;27374;-83
2024/01/11 03:50:03;;;;;;;32.70;19.23;;;-3.50;76.70;;;;;;962470;147;27368;-83
2024/01/11 03:52:30;;;;;;;34.27;19.23;;;-3.50;76.80;;;;;;960409;146;27315;-83
2024/01/11 03:54:57;;;;;;;35.60;20.00;;;-3.50;76.80;;;;;;958820;148;27375;-83
2024/01/11 03:57:23;;;;;;;29.13;18.53;;;-3.50;76.80;;;;;;961388;147;27810;-83
2024/01/11 03:59:50;;;;;;;31.73;18.83;;;-3.50;76.90;;;;;;961708;148;27384;-83
2024/01/11 04:02:16;;;;;;;33.07;20.43;;;-3.50;76.80;;;;;;960217;147;27319;-83
2024/01/11 04:04:43;;;;;;;40.43;21.13;;;-3.50;76.90;;;;;;962201;147;27322;-83
2024/01/11 04:07:10;;;;;;;35.60;20.50;;;-3.50;76.90;;;;;;960195;147;27372;-83
2024/01/11 04:09:36;;;;;;;33.10;19.90;;;-3.50;76.90;;;;;;961292;147;27324;-83
2024/01/11 04:12:03;;;;;;;31.90;20.53;;;-3.50;76.90;;;;;;958164;147;27263;-83
2024/01/11 04:14:29;;;;;;;37.70;20.83;;;-3.50;77.00;;;;;;962149;147;27318;-83
2024/01/11 04:16:56;;;;;;;36.40;20.37;;;-3.50;76.90;;;;;;961377;147;27454;-83
2024/01/11 04:19:22;;;;;;;36.63;21.70;;;-3.50;76.90;;;;;;962408;147;27384;-83
2024/01/11 04:21:49;;;;;;;35.27;20.63;;;-3.50;76.90;;;;;;959098;148;27766;-83
2024/01/11 04:24:16;;;;;;;39.50;21.13;;;-3.50;76.90;;;;;;961593;147;27298;-83
2024/01/11 04:26:42;;;;;;;35.63;19.60;;;-3.50;76.90;;;;;;962782;147;27318;-85
2024/01/11 04:29:09;;;;;;;35.67;20.33;;;-3.50;76.90;;;;;;960788;147;27708;-84
2024/01/11 04:31:35;;;;;;;34.33;20.30;;;-3.50;76.80;;;;;;961844;147;27376;-85
2024/01/11 04:34:02;;;;;;;35.93;21.07;;;-3.50;76.70;;;;;;961622;146;27286;-84
2024/01/11 04:36:29;;;;;;;36.37;21.07;;;-3.50;76.70;;;;;;960758;147;27330;-86
2024/01/11 04:38:55;;;;;;;32.90;20.50;;;-3.50;76.80;;;;;;960936;147;27403;-85
2024/01/11 04:41:22;;;;;;;35.70;20.73;;;-3.50;76.80;;;;;;959918;147;27247;-85
2024/01/11 04:43:48;;;;;;;42.23;22.13;;;-3.50;76.80;;;;;;961432;147;27275;-86
2024/01/11 04:46:18;;;;;;;38.57;21.87;;;-3.50;76.90;;;;;;961033;147;27335;-83
2024/01/11 04:48:44;;;;;;;35.50;21.00;;;-3.50;76.90;;;;;;959760;147;28318;-85
2024/01/11 04:51:11;;;;;;;35.40;20.20;;;-3.50;76.90;;;;;;959085;148;27247;-84
2024/01/11 04:53:38;;;;;;;39.40;21.37;;;-3.50;76.80;;;;;;958496;148;27252;-85
2024/01/11 04:56:04;;;;;;;38.17;21.93;;;-3.50;76.90;;;;;;958686;148;27279;-83
2024/01/11 04:58:31;;;;;;;38.73;20.93;;;-3.50;76.80;;;;;;957542;148;27315;-86
2024/01/11 05:00:57;;;;;;;42.97;22.53;;;-3.50;76.90;;;;;;958012;148;27326;-85
2024/01/11 05:03:24;;;;;;;37.63;22.67;;;-3.60;76.70;;;;;;957721;148;27640;-83
2024/01/11 05:05:50;;;;;;;37.80;21.57;;;-3.60;76.70;;;;;;958875;148;27370;-85
2024/01/11 05:08:17;;;;;;;37.10;22.70;;;-3.60;76.60;;;;;;958691;148;27407;-86
2024/01/11 05:10:44;;;;;;;36.13;22.73;;;-3.60;75.80;;;;;;959233;147;27249;-86
2024/01/11 05:13:10;;;;;;;44.13;24.07;;;-3.60;76.50;;;;;;960130;148;27774;-84
2024/01/11 05:15:37;;;;;;;41.27;21.37;;;-3.60;76.60;;;;;;958458;148;27304;-84
2024/01/11 05:18:03;;;;;;;42.30;22.50;;;-3.60;77.50;;;;;;955294;148;27804;-83
2024/01/11 05:20:30;;;;;;;41.70;23.23;;;-3.60;76.00;;;;;;957057;148;27448;-83
2024/01/11 05:22:57;;;;;;;42.23;21.67;;;-3.60;76.70;;;;;;958744;146;27287;-83
2024/01/11 05:25:24;;;;;;;39.43;21.57;;;-3.60;76.70;;;;;;958015;148;27366;-83
2024/01/11 05:27:50;;;;;;;45.77;22.73;;;-3.60;76.70;;;;;;957005;147;27835;-83
2024/01/11 05:30:16;;;;;;;40.17;23.07;;;-3.60;76.70;;;;;;959053;147;27339;-83
2024/01/11 05:32:43;;;;;;;41.30;22.47;;;-3.60;76.70;;;;;;958109;148;27461;-85
2024/01/11 05:35:10;;;;;;;35.97;21.43;;;-3.60;76.70;;;;;;958203;146;27414;-86
2024/01/11 05:37:36;;;;;;;41.43;22.67;;;-3.60;76.70;;;;;;956959;148;27614;-85
2024/01/11 05:40:03;;;;;;;35.57;21.67;;;-3.60;76.60;;;;;;958122;146;27345;-86
2024/01/11 05:42:29;;;;;;;39.53;22.10;;;-3.60;76.50;;;;;;958573;148;27238;-86
2024/01/11 05:44:56;;;;;;;35.27;21.13;;;-3.60;76.40;;;;;;959100;146;27252;-86
2024/01/11 05:47:22;;;;;;;40.73;21.27;;;-3.60;76.40;;;;;;958778;146;27306;-85
2024/01/11 05:49:49;;;;;;;35.47;21.27;;;-3.60;76.40;;;;;;959200;148;27379;-86
2024/01/11 05:52:16;;;;;;;36.67;20.50;;;-3.60;76.50;;;;;;959700;146;27343;-87
2024/01/11 05:54:42;;;;;;;34.87;20.30;;;-3.60;76.40;;;;;;962032;148;27389;-86
2024/01/11 05:57:09;;;;;;;37.43;20.70;;;-3.60;76.30;;;;;;962329;146;27367;-86
2024/01/11 05:59:35;;;;;;;41.30;21.17;;;-3.60;76.40;;;;;;960338;147;27432;-85
2024/01/11 06:02:02;;;;;;;40.90;21.00;;;-3.60;76.50;;;;;;961125;146;27338;-86
2024/01/11 06:04:29;;;;;;;34.87;20.80;;;-3.60;76.50;;;;;;961333;146;27298;-86
2024/01/11 06:06:55;;;;;;;32.93;19.27;;;-3.60;76.40;;;;;;962201;147;27306;-86
2024/01/11 06:09:22;;;;;;;39.53;22.10;;;-3.60;76.30;;;;;;962217;148;27354;-85
2024/01/11 06:11:49;;;;;;;34.40;20.83;;;-3.60;76.30;;;;;;961187;146;27331;-86
2024/01/11 06:14:15;;;;;;;41.80;21.73;;;-3.60;76.40;;;;;;959679;146;27392;-87
2024/01/11 06:16:42;;;;;;;40.03;22.53;;;-3.70;76.40;;;;;;961101;148;27350;-86
2024/01/11 06:19:09;;;;;;;37.57;22.20;;;-3.70;76.30;;;;;;962939;146;27343;-85
2024/01/11 06:21:35;;;;;;;40.60;21.90;;;-3.70;76.30;;;;;;961803;148;27419;-86
2024/01/11 06:24:03;;;;;;;40.03;22.13;;;-3.70;76.40;;;;;;959942;148;27275;-83
2024/01/11 06:26:28;;;;;;;40.27;22.83;;;-3.70;76.60;;;;;;960188;146;27223;-83
2024/01/11 06:28:55;;;;;;;35.73;21.00;;;-3.70;77.40;;;;;;962191;148;28179;-84
2024/01/11 06:31:21;;;;;;;39.90;22.33;;;-3.70;76.60;;;;;;961117;146;27326;-83
2024/01/11 06:33:48;;;;;;;42.97;23.93;;;-3.70;76.70;;;;;;960974;146;27338;-83
2024/01/11 06:36:14;;;;;;;40.57;22.37;;;-3.70;76.70;;;;;;961029;146;27475;-83
2024/01/11 06:38:41;;;;;;;43.47;23.07;;;-3.80;76.60;;;;;;960753;148;27263;-84
2024/01/11 06:41:08;;;;;;;44.00;23.20;;;-3.80;76.70;;;;;;960731;147;27287;-85
2024/01/11 06:43:34;;;;;;;36.20;23.23;;;-3.80;76.70;;;;;;961576;146;27924;-86
2024/01/11 06:46:09;;;;;;;39.07;23.57;;;-3.80;77.20;;;;;;960972;148;27255;-85
2024/01/11 06:48:33;;;;;;;46.63;24.90;;;-3.80;76.80;;;;;;959730;147;27259;-86
2024/01/11 06:51:00;;;;;;;42.20;24.27;;;-3.80;76.80;;;;;;957393;147;27340;-84
2024/01/11 06:53:27;;;;;;;40.50;23.73;;;-3.80;76.80;;;;;;962735;146;27321;-85
2024/01/11 06:55:53;;;;;;;40.93;22.97;;;-3.80;76.90;;;;;;957406;148;27344;-86
2024/01/11 06:58:23;;;;;;;39.93;24.43;;;-3.80;76.90;;;;;;959175;148;27378;-86
2024/01/11 07:00:49;;;;;;;38.37;24.07;;;-3.80;76.90;;;;;;956684;148;27288;-85
2024/01/11 07:03:16;;;;;;;41.73;24.20;;;-3.80;76.90;;;;;;959070;148;27367;-85
2024/01/11 07:05:42;;;;;;;41.47;23.97;;;-3.80;76.90;;;;;;957238;147;27307;-86
2024/01/11 07:08:09;;;;;;;42.83;23.87;;;-3.80;76.90;;;;;;958724;148;27276;-85
2024/01/11 07:10:36;;;;;;;41.73;25.63;;;-3.80;76.90;;;;;;957983;148;27331;-85
2024/01/11 07:13:02;;;;;;;54.33;28.30;;;-3.80;77.00;;;;;;958307;146;27284;-85
2024/01/11 07:15:29;;;;;;;43.33;23.53;;;-3.80;77.70;;;;;;957563;147;27504;-86
2024/01/11 07:17:55;;;;;;;39.93;24.13;;;-3.80;77.10;;;;;;958422;147;27252;-85
2024/01/11 07:20:22;;;;;;;39.77;23.50;;;-3.80;77.10;;;;;;958207;147;27309;-86
2024/01/11 07:22:48;;;;;;;40.07;22.30;;;-3.80;77.10;;;;;;959214;148;27257;-86
2024/01/11 07:25:15;;;;;;;44.23;23.20;;;-3.80;77.10;;;;;;960718;148;27337;-83
2024/01/11 07:27:42;;;;;;;39.83;23.63;;;-3.80;77.80;;;;;;958119;146;27343;-86
2024/01/11 07:30:08;;;;;;;40.27;22.90;;;-3.80;77.10;;;;;;956618;146;27389;-85
2024/01/11 07:32:35;;;;;;;41.37;22.87;;;-3.80;77.20;;;;;;959244;148;27330;-86
2024/01/11 07:35:02;;;;;;;42.63;23.93;;;-3.80;77.20;;;;;;957700;148;27746;-86
2024/01/11 07:37:28;;;;;;;44.07;23.90;;;-3.80;77.20;;;;;;959184;148;27727;-90
2024/01/11 07:39:55;;;;;;;44.73;24.17;;;-3.80;77.30;;;;;;957275;147;27259;-88
2024/01/11 07:42:21;;;;;;;43.90;25.47;;;-3.80;77.20;;;;;;958231;148;27282;-88
2024/01/11 07:44:48;;;;;;;44.33;24.87;;;-3.80;77.40;;;;;;957137;146;27344;-88
2024/01/11 07:47:14;;;;;;;45.13;25.30;;;-3.70;77.80;;;;;;955676;148;27333;-88
2024/01/11 07:49:41;;;;;;;43.37;24.23;;;-3.60;78.40;;;;;;958541;148;27311;-89
2024/01/11 07:52:08;;;;;;;42.20;23.37;;;-3.50;78.90;;;;;;961677;148;27299;-88
2024/01/11 07:54:34;;;;;;;46.63;24.40;;;-3.30;79.40;;;;;;961059;148;27354;-85
2024/01/11 07:57:02;;;;;;;40.10;23.97;;;-3.00;79.80;;;;;;961928;146;27334;-86
2024/01/11 07:59:27;;;;;;;42.30;24.17;;;-2.80;79.80;;;;;;961040;147;27368;-85
2024/01/11 08:01:54;;;;;;;38.97;23.17;;;-2.60;79.30;;;;;;961780;148;27277;-83
2024/01/11 08:04:21;;;;;;;40.13;22.87;;;-2.50;78.80;;;;;;961195;145;27328;-85
2024/01/11 08:06:47;;;;;;;43.90;22.07;;;-2.30;78.40;;;;;;963399;146;27355;-85
2024/01/11 08:09:14;;;;;;;38.80;23.20;;;-2.20;77.90;;;;;;960228;146;27388;-84
2024/01/11 08:11:43;;;;;;;41.47;22.03;;;-2.10;77.70;;;;;;961370;147;27292;-84
2024/01/11 08:14:07;;;;;;;36.57;22.00;;;-2.00;77.80;;;;;;959023;147;27393;-84
2024/01/11 08:16:34;;;;;;;45.83;24.17;;;-1.80;78.10;;;;;;961329;148;27743;-85
2024/01/11 08:19:00;;;;;;;36.53;22.93;;;-1.60;78.70;;;;;;960438;147;27339;-84
2024/01/11 08:21:28;;;;;;;36.00;21.47;;;-1.40;79.00;;;;;;960992;146;27393;-85
2024/01/11 08:23:54;;;;;;;36.50;23.13;;;-1.10;79.30;;;;;;961023;148;27244;-84
2024/01/11 08:26:21;;;;;;;37.60;22.03;;;-0.80;79.10;;;;;;962868;147;27307;-84
2024/01/11 08:28:46;;;;;;;34.97;21.03;;;-0.60;78.70;;;;;;963037;148;27447;-84
2024/01/11 08:31:13;;;;;;;38.40;22.30;;;-0.40;77.90;;;;;;960263;146;27959;-84
2024/01/11 08:33:40;;;;;;;38.97;22.57;;;-0.30;77.00;;;;;;961026;146;27379;-84
2024/01/11 08:36:06;;;;;;;37.27;22.80;;;-0.30;76.10;;;;;;962664;148;27280;-85
2024/01/11 08:38:33;;;;;;;35.00;21.90;;;-0.20;75.70;;;;;;963370;147;27353;-86
2024/01/11 08:40:59;;;;;;;36.90;21.83;;;-0.30;75.20;;;;;;961310;146;27339;-84
2024/01/11 08:43:26;;;;;;;34.37;21.07;;;-0.30;75.00;;;;;;961453;148;27914;-83
2024/01/11 08:45:53;;;;;;;36.30;22.43;;;-0.30;75.00;;;;;;959287;148;27263;-83
2024/01/11 08:48:19;;;;;;;41.90;23.73;;;-0.30;75.00;;;;;;960317;148;27307;-84
2024/01/11 08:50:46;;;;;;;37.57;22.67;;;-0.30;75.10;;;;;;960200;147;27458;-83
2024/01/11 08:53:12;;;;;;;40.50;25.33;;;-0.30;75.10;;;;;;963248;147;28124;-83
2024/01/11 08:55:39;;;;;;;43.27;24.90;;;-0.30;75.00;;;;;;960742;148;27356;-83
2024/01/11 08:58:06;;;;;;;40.33;25.57;;;-0.30;74.70;;;;;;960185;148;27252;-84
2024/01/11 09:00:32;;;;;;;40.70;26.00;;;-0.40;74.50;;;;;;961242;147;27335;-84
2024/01/11 09:02:59;;;;;;;37.80;23.97;;;-0.40;74.50;;;;;;958739;148;27420;-83
2024/01/11 09:05:25;;;;;;;36.53;23.73;;;-0.40;74.50;;;;;;959605;147;27303;-89
2024/01/11 09:07:52;;;;;;;40.37;24.13;;;-0.40;74.60;;;;;;963820;146;27340;-89
2024/01/11 09:10:19;;;;;;;42.47;24.47;;;-0.50;74.50;;;;;;959592;147;27425;-90
2024/01/11 09:12:46;;;;;;;33.77;23.40;;;-0.50;74.30;;;;;;959995;147;27430;-89
2024/01/11 09:15:12;;;;;;;34.97;24.63;;;-0.50;74.30;;;;;;963432;147;27227;-87
2024/01/11 09:17:38;;;;;;;41.73;25.50;;;-0.50;74.20;;;;;;962605;147;27250;-86
2024/01/11 09:20:05;;;;;;;40.33;24.63;;;-0.60;74.30;;;;;;961205;147;27263;-87
2024/01/11 09:22:32;;;;;;;39.50;24.53;;;-0.60;74.40;;;;;;959485;147;27367;-88
2024/01/11 09:24:58;;;;;;;39.93;25.23;;;-0.60;74.50;;;;;;960528;146;27304;-89
2024/01/11 09:27:25;;;;;;;41.57;24.60;;;-0.70;74.50;;;;;;961038;147;27369;-88
2024/01/11 09:29:51;;;;;;;40.97;23.93;;;-0.70;75.00;;;;;;961429;147;27369;-85
2024/01/11 09:32:18;;;;;;;40.97;26.63;;;-0.70;74.60;;;;;;959126;147;27330;-87
2024/01/11 09:34:45;;;;;;;43.07;26.23;;;-0.70;74.70;;;;;;959921;146;27334;-88
2024/01/11 09:37:11;;;;;;;42.87;25.70;;;-0.70;74.80;;;;;;961166;146;27299;-88
2024/01/11 09:39:38;;;;;;;37.27;25.63;;;-0.60;74.90;;;;;;962092;147;27329;-86
2024/01/11 09:42:09;;;;;;;45.87;27.60;;;-0.60;74.80;;;;;;962620;148;27355;-84
2024/01/11 09:44:34;;;;;;;40.40;24.40;;;-0.60;74.80;;;;;;961397;147;27325;-86
2024/01/11 09:47:00;;;;;;;36.80;23.63;;;-0.60;74.80;;;;;;961039;147;27336;-86
2024/01/11 09:49:27;;;;;;;38.97;24.07;;;-0.60;74.90;;;;;;961882;147;27327;-86
2024/01/11 09:51:56;;;;;;;35.13;23.50;;;-0.60;74.80;;;;;;959365;148;27370;-85
2024/01/11 09:54:23;;;;;;;35.43;23.13;;;-0.50;74.90;;;;;;956883;147;27307;-83
2024/01/11 09:56:46;;;;;;;38.27;24.80;;;-0.50;74.90;;;;;;959265;148;27322;-83
2024/01/11 09:59:13;;;;;;;37.87;23.63;;;-0.50;74.90;;;;;;959156;146;27304;-83
2024/01/11 10:01:40;;;;;;;37.03;24.67;;;-0.40;75.00;;;;;;959391;145;27320;-83
2024/01/11 10:04:06;;;;;;;37.70;24.73;;;-0.40;74.90;;;;;;959083;148;27440;-82
2024/01/11 10:06:36;;;;;;;38.10;24.23;;;-0.40;74.70;;;;;;959498;148;27386;-82
2024/01/11 10:08:59;;;;;;;32.37;23.30;;;-0.40;74.60;;;;;;959788;148;27311;-83
2024/01/11 10:11:26;;;;;;;38.83;24.40;;;-0.30;74.60;;;;;;957292;145;27292;-83
2024/01/11 10:14:00;;;;;;;35.40;23.03;;;-0.30;74.70;;;;;;959829;148;27431;-83
2024/01/11 10:16:25;;;;;;;37.63;23.27;;;-0.30;74.70;;;;;;958003;145;27344;-87
2024/01/11 10:18:55;;;;;;;35.00;22.63;;;-0.20;74.80;;;;;;959668;148;27825;-87
2024/01/11 10:21:21;;;;;;;37.57;23.47;;;-0.20;74.90;;;;;;958323;148;27284;-88
2024/01/11 10:23:48;;;;;;;35.83;23.07;;;-0.10;74.80;;;;;;960571;147;27384;-82
2024/01/11 10:26:17;;;;;;;37.40;23.60;;;0.00;74.70;;;;;;958629;148;27330;-88
2024/01/11 10:28:44;;;;;;;33.87;22.73;;;0.00;74.80;;;;;;925879;153;27377;-87
2024/01/11 10:31:11;;;;;;;36.37;23.30;;;0.10;74.90;;;;;;955253;145;27349;-88
2024/01/11 10:33:37;;;;;;;38.33;23.20;;;0.20;74.90;;;;;;958403;145;27332;-84
2024/01/11 10:36:04;;;;;;;32.77;22.07;;;0.30;75.00;;;;;;957777;147;27355;-83
2024/01/11 10:38:33;;;;;;;36.60;23.73;;;0.40;75.10;;;;;;957164;148;27288;-89
2024/01/11 10:41:00;;;;;;;32.17;22.63;;;0.50;75.10;;;;;;957562;146;27417;-89
2024/01/11 10:43:26;;;;;;;36.67;24.00;;;0.60;75.10;;;;;;958099;148;27352;-86
2024/01/11 10:45:57;;;;;;;33.70;21.93;;;0.70;75.00;;;;;;957831;148;27324;-83
2024/01/11 10:48:20;;;;;;;34.80;22.73;;;0.80;75.00;;;;;;958620;148;27336;-87
2024/01/11 10:50:46;;;;;;;32.33;22.77;;;0.90;75.00;;;;;;957566;148;27284;-89
2024/01/11 10:53:13;;;;;;;32.07;23.17;;;0.90;74.90;;;;;;959888;147;27350;-88
2024/01/11 10:55:39;;;;;;;38.10;23.23;;;1.00;74.80;;;;;;956666;148;27284;-85
2024/01/11 10:58:06;;;;;;;36.50;23.17;;;1.10;74.80;;;;;;956552;148;27330;-86
2024/01/11 11:00:33;;;;;;;39.80;24.03;;;1.20;74.60;;;;;;958604;148;27285;-88
2024/01/11 11:03:00;;;;;;;36.80;24.03;;;1.30;74.60;;;;;;957745;148;27260;-81
2024/01/11 11:05:26;;;;;;;34.60;23.07;;;1.30;74.60;;;;;;957030;148;27312;-81
2024/01/11 11:07:53;;;;;;;35.83;22.90;;;1.40;74.50;;;;;;956106;146;27354;-81
2024/01/11 11:10:19;;;;;;;35.83;24.13;;;1.40;74.40;;;;;;956570;148;27260;-81
2024/01/11 11:12:46;;;;;;;38.07;22.67;;;1.50;74.30;;;;;;957185;146;27740;-80
2024/01/11 11:15:12;;;;;;;33.27;23.27;;;1.50;74.20;;;;;;958086;148;27393;-81
2024/01/11 11:17:39;;;;;;;35.90;24.10;;;1.60;74.00;;;;;;956612;148;27406;-81
2024/01/11 11:20:05;;;;;;;38.27;23.30;;;1.60;73.90;;;;;;958563;147;27688;-80
2024/01/11 11:22:32;;;;;;;37.00;23.27;;;1.60;73.70;;;;;;956388;148;27377;-80
2024/01/11 11:25:05;;;;;;;37.30;23.90;;;1.70;73.70;;;;;;958734;148;27292;-80
2024/01/11 11:27:31;;;;;;;37.77;24.63;;;1.70;73.60;;;;;;955657;148;27310;-81
2024/01/11 11:29:58;;;;;;;38.63;24.87;;;1.70;73.50;;;;;;958599;148;27360;-79
2024/01/11 11:32:37;;;;;;;40.90;23.80;;;1.70;73.40;;;;;;959557;146;27278;-79
2024/01/11 11:35:03;;;;;;;34.27;22.40;;;1.70;73.50;;;;;;913066;153;27428;-80
2024/01/11 11:37:31;;;;;;;34.97;23.17;;;1.70;73.40;;;;;;926234;151;27362;-80
2024/01/11 11:39:56;;;;;;;34.23;22.70;;;1.70;73.50;;;;;;926731;150;27452;-80
2024/01/11 11:42:24;;;;;;;36.70;23.23;;;1.70;73.50;;;;;;925084;149;27375;-81
2024/01/11 11:44:50;;;;;;;37.43;23.40;;;1.70;73.40;;;;;;927695;151;27800;-80
2024/01/11 11:47:22;;;;;;;41.03;25.33;;;1.80;73.40;;;;;;927786;151;27387;-81
2024/01/11 11:50:10;;;;;;;39.47;24.70;;;1.80;73.50;;;;;;924838;151;27403;-83
2024/01/11 11:52:37;;;;;;;38.83;24.30;;;1.80;73.50;;;;;;959864;146;27411;-82
2024/01/11 11:55:03;;;;;;;37.93;24.30;;;1.80;73.40;;;;;;956531;148;28277;-82
2024/01/11 11:57:30;;;;;;;36.30;22.80;;;1.80;73.30;;;;;;957138;148;27284;-82
2024/01/11 11:59:57;;;;;;;33.63;23.10;;;1.90;73.40;;;;;;957860;148;27285;-83
2024/01/11 12:02:23;;;;;;;38.90;22.50;;;1.90;73.30;;;;;;958318;148;27407;-84
2024/01/11 12:04:50;;;;;;;31.97;21.53;;;1.90;73.30;;;;;;958449;145;27351;-82
2024/01/11 12:07:16;;;;;;;38.23;22.93;;;1.90;72.50;;;;;;958070;148;27263;-82
2024/01/11 12:09:43;;;;;;;35.63;22.17;;;2.00;73.30;;;;;;959915;148;27291;-82
2024/01/11 12:12:09;;;;;;;35.50;22.73;;;2.00;73.50;;;;;;957756;148;27364;-83
2024/01/11 12:14:36;;;;;;;33.43;22.40;;;2.00;73.30;;;;;;958335;148;27646;-82
2024/01/11 12:17:02;;;;;;;37.63;23.37;;;2.10;73.40;;;;;;958273;148;27252;-80
2024/01/11 12:19:29;;;;;;;38.43;24.80;;;2.10;73.30;;;;;;958871;147;27409;-80
2024/01/11 12:21:56;;;;;;;43.27;25.43;;;2.10;73.30;;;;;;956695;148;27348;-81
2024/01/11 12:24:23;;;;;;;37.63;24.30;;;2.20;73.20;;;;;;958156;148;27332;-81